»·PEaware :: N48427 KBLH-KSNA

N48427 :: KBLH-KSNA

FLIGHT INFORMATION

Flight Status: Arrived
Operator: Privately registered:
United States
More flights under this callsign
Pilot: Carson T. (20437)
Aircraft: CESSNA 172 SKYHAWK
(C172)
More flights by this aircraft type
Origin: KBLH Blythe
United States
Destination: KSNA John Wayne-Orange Co
United States
More flights between these airports :: More routes between these airports
Route:
File this flight plan on PilotEdge
Remarks:
Altitude:
(Current/Filed)
8,500ft
Speed:
(Current/Filed)
130kts
Departed: 25-Oct-18 11:49 AM
Arrived: 25-Oct-18 01:14 PM
Distance/Time
Traveled:
157nm/1:24
Distance/Time
To Go:
Arrived

Flight Plot

Page will automatically refresh every two minutes.

Flight plan parsing failed; only flown route is shown


Map Options




Map Legend


Flown Route
Filed Route
Departure Airport
Arrival Airport
Navaid (VOR, NDB)
Fix

Horizontal Profiles

Position Reports

Time Latitude Longitude Heading Altitude Ground
Speed
25-Oct-18 11:43 33.614162 -114.714292 359 393ft 0kts
25-Oct-18 11:44 33.614162 -114.714292 359 393ft 0kts
25-Oct-18 11:45 33.614162 -114.714292 359 393ft 0kts
25-Oct-18 11:46 33.614162 -114.714292 359 393ft 0kts
25-Oct-18 11:47 33.614162 -114.714292 359 393ft 0kts
25-Oct-18 11:48 33.614141 -114.715132 265 393ft 13kts
25-Oct-18 11:49 33.614245 -114.716797 359 394ft 0kts
25-Oct-18 11:50 33.614244 -114.716797 359 394ft 0kts
25-Oct-18 11:51 33.622935 -114.716678 2 501ft 69kts
25-Oct-18 11:52 33.643978 -114.716124 328 1079ft 77kts
25-Oct-18 11:53 33.641998 -114.736793 244 1768ft 61kts
25-Oct-18 11:54 33.633411 -114.759058 243 2145ft 90kts
25-Oct-18 11:55 33.623704 -114.790966 258 2454ft 110kts
25-Oct-18 11:56 33.620717 -114.828031 268 2812ft 109kts
25-Oct-18 11:57 33.620579 -114.863915 271 3308ft 106kts
25-Oct-18 11:58 33.621276 -114.898800 272 3804ft 103kts
25-Oct-18 11:59 33.622212 -114.932869 273 4299ft 101kts
25-Oct-18 12:00 33.623198 -114.966288 274 4795ft 99kts
25-Oct-18 12:01 33.624181 -114.998949 274 5290ft 97kts
25-Oct-18 12:02 33.625140 -115.030675 274 5785ft 93kts
25-Oct-18 12:03 33.626091 -115.061852 274 6219ft 95kts
25-Oct-18 12:04 33.627082 -115.094065 274 6617ft 97kts
25-Oct-18 12:05 33.628068 -115.126570 274 7015ft 97kts
25-Oct-18 12:06 33.629030 -115.158765 274 7411ft 96kts
25-Oct-18 12:07 33.629962 -115.190379 273 7807ft 93kts
25-Oct-18 12:08 33.630848 -115.221231 273 8195ft 92kts
25-Oct-18 12:09 33.631782 -115.252866 273 8497ft 97kts
25-Oct-18 12:10 33.632802 -115.286811 273 8626ft 113kts
25-Oct-18 12:11 33.633985 -115.326279 273 8620ft 122kts
25-Oct-18 12:12 33.635158 -115.367366 273 8612ft 123kts
25-Oct-18 12:13 33.636307 -115.408283 273 8604ft 121kts
25-Oct-18 12:14 33.637418 -115.448632 273 8597ft 120kts
25-Oct-18 12:15 33.638500 -115.488723 273 8597ft 120kts
25-Oct-18 12:16 33.639568 -115.528783 273 8597ft 120kts
25-Oct-18 12:17 33.640621 -115.568800 273 8597ft 120kts
25-Oct-18 12:18 33.641659 -115.608716 273 8597ft 120kts
25-Oct-18 12:19 33.642684 -115.648669 273 8597ft 120kts
25-Oct-18 12:20 33.643711 -115.688989 272 8533ft 122kts
25-Oct-18 12:21 33.644721 -115.729423 273 8533ft 120kts
25-Oct-18 12:22 33.645709 -115.769468 273 8533ft 120kts
25-Oct-18 12:23 33.646684 -115.809527 273 8533ft 120kts
25-Oct-18 12:24 33.647649 -115.849652 273 8533ft 120kts
25-Oct-18 12:25 33.648601 -115.889745 273 8533ft 120kts
25-Oct-18 12:26 33.649539 -115.929832 273 8533ft 120kts
25-Oct-18 12:27 33.650463 -115.969867 273 8533ft 120kts
25-Oct-18 12:28 33.651375 -116.009933 273 8533ft 120kts
25-Oct-18 12:29 33.652275 -116.050048 273 8533ft 120kts
25-Oct-18 12:30 33.653162 -116.090200 273 8533ft 120kts
25-Oct-18 12:31 33.654033 -116.130122 273 8533ft 120kts
25-Oct-18 12:32 33.654847 -116.168032 273 8533ft 120kts
25-Oct-18 12:33 33.655696 -116.208182 273 8535ft 120kts
25-Oct-18 12:34 33.656531 -116.248229 273 8538ft 120kts
25-Oct-18 12:35 33.657356 -116.288436 273 8541ft 120kts
25-Oct-18 12:36 33.658170 -116.328695 273 8544ft 121kts
25-Oct-18 12:37 33.658973 -116.369130 273 8547ft 121kts
25-Oct-18 12:38 33.659765 -116.409622 273 8550ft 121kts
25-Oct-18 12:39 33.660545 -116.450194 273 8555ft 122kts
25-Oct-18 12:40 33.661317 -116.491077 272 8560ft 122kts
25-Oct-18 12:41 33.662071 -116.531630 273 8549ft 122kts
25-Oct-18 12:42 33.662810 -116.572203 273 8553ft 121kts
25-Oct-18 12:43 33.663529 -116.612375 273 8557ft 120kts
25-Oct-18 12:44 33.664227 -116.652101 272 8560ft 120kts
25-Oct-18 12:45 33.664915 -116.691991 272 8560ft 120kts
25-Oct-18 12:46 33.665596 -116.732172 272 8560ft 120kts
25-Oct-18 12:47 33.666258 -116.772002 272 8560ft 120kts
25-Oct-18 12:48 33.666911 -116.812095 272 8560ft 120kts
25-Oct-18 12:49 33.667555 -116.852291 272 8534ft 122kts
25-Oct-18 12:51 33.668287 -116.899350 272 8536ft 120kts
25-Oct-18 12:51 33.668794 -116.932640 272 8543ft 120kts
25-Oct-18 12:52 33.669386 -116.972217 273 8552ft 119kts
25-Oct-18 12:53 33.669970 -117.011989 273 8561ft 119kts
25-Oct-18 12:54 33.670539 -117.051637 274 8570ft 118kts
25-Oct-18 12:55 33.671090 -117.090950 274 8579ft 118kts
25-Oct-18 12:56 33.671630 -117.130251 274 8587ft 118kts
25-Oct-18 12:57 33.672161 -117.169687 274 8585ft 118kts
25-Oct-18 12:58 33.672690 -117.209292 274 8500ft 124kts
25-Oct-18 12:59 33.673273 -117.251477 274 8198ft 127kts
25-Oct-18 13:00 33.673179 -117.293942 271 7897ft 128kts
25-Oct-18 13:01 33.672716 -117.336846 273 7594ft 128kts
25-Oct-18 13:02 33.673121 -117.379479 273 7292ft 128kts
25-Oct-18 13:03 33.673581 -117.422173 273 6990ft 128kts
25-Oct-18 13:04 33.674035 -117.464905 273 6686ft 128kts
25-Oct-18 13:05 33.674439 -117.505607 273 6628ft 118kts
25-Oct-18 13:06 33.674819 -117.544405 273 6608ft 109kts
25-Oct-18 13:07 33.675229 -117.583567 273 6250ft 127kts
25-Oct-18 13:08 33.675499 -117.626257 278 5945ft 114kts
25-Oct-18 13:09 33.693701 -117.660475 310 5098ft 139kts
25-Oct-18 13:10 33.717923 -117.697503 308 4099ft 141kts
25-Oct-18 13:11 33.725479 -117.740062 260 3053ft 137kts
25-Oct-18 13:12 33.720524 -117.783199 255 2524ft 118kts
25-Oct-18 13:13 33.707249 -117.817527 250 2480ft 111kts
25-Oct-18 13:14 33.697399 -117.849236 246 1352ft 90kts
25-Oct-18 13:15 33.680682 -117.863919 213 108ft 69kts
25-Oct-18 13:16 33.673867 -117.867517 114 60ft 0kts
25-Oct-18 13:17 33.672936 -117.867206 138 60ft 5kts
25-Oct-18 13:18 33.672725 -117.866330 247 60ft 0kts
25-Oct-18 13:19 33.672722 -117.866337 247 60ft 0kts
25-Oct-18 13:20 33.672722 -117.866337 247 60ft 0kts
25-Oct-18 13:21 33.672722 -117.866337 247 60ft 0kts
25-Oct-18 13:22 33.672722 -117.866337 247 60ft 0kts
25-Oct-18 13:23 33.672722 -117.866337 247 60ft 0kts
25-Oct-18 13:24 33.672722 -117.866337 247 60ft 0kts
25-Oct-18 13:25 33.672722 -117.866337 247 60ft 0kts
25-Oct-18 13:26 33.672722 -117.866337 247 60ft 0kts
25-Oct-18 13:27 33.672722 -117.866337 247 60ft 0kts
25-Oct-18 13:28 33.672722 -117.866337 247 60ft 0kts
25-Oct-18 13:29 33.672722 -117.866337 247 60ft 0kts
25-Oct-18 13:30 33.672722 -117.866337 247 60ft 0kts

Navigation Log

Ident Type
Flight plan parsing failed, navigation log unavailable